createdAt,value
2019-01-23T00:02:00.516Z,-6.70
2019-01-23T00:04:30.191Z,-6.80
2019-01-23T00:06:59.869Z,-6.70
2019-01-23T00:09:29.535Z,-6.80
2019-01-23T00:11:59.247Z,-6.80
2019-01-23T00:14:28.900Z,-6.80
2019-01-23T00:16:58.572Z,-6.80
2019-01-23T00:19:28.258Z,-6.80
2019-01-23T00:21:58.250Z,-6.90
2019-01-23T00:24:28.042Z,-6.80
2019-01-23T00:26:57.673Z,-6.90
2019-01-23T00:29:27.295Z,-6.90
2019-01-23T00:31:56.958Z,-6.90
2019-01-23T00:34:26.671Z,-6.90
2019-01-23T00:36:56.296Z,-7.00
2019-01-23T00:39:26.005Z,-6.90
2019-01-23T00:41:55.623Z,-7.00
2019-01-23T00:44:25.240Z,-7.00
2019-01-23T00:46:54.924Z,-7.00
2019-01-23T00:49:24.554Z,-7.00
2019-01-23T00:51:54.260Z,-7.00
2019-01-23T00:54:24.174Z,-7.00
2019-01-23T00:56:53.875Z,-7.10
2019-01-23T00:59:23.497Z,-7.10
2019-01-23T01:01:53.203Z,-7.10
2019-01-23T01:04:22.895Z,-7.10
2019-01-23T01:06:52.558Z,-7.00
2019-01-23T01:09:22.323Z,-7.00
2019-01-23T01:11:52.442Z,-7.00
2019-01-23T01:14:22.100Z,-7.00
2019-01-23T01:16:51.766Z,-7.00
2019-01-23T01:19:21.526Z,-7.00
2019-01-23T01:21:51.142Z,-6.90
2019-01-23T01:24:20.895Z,-6.90
2019-01-23T01:26:50.555Z,-6.80
2019-01-23T01:29:20.198Z,-6.70
2019-01-23T01:31:49.920Z,-6.70
2019-01-23T01:34:19.546Z,-6.70
2019-01-23T01:36:49.191Z,-6.60
2019-01-23T01:39:18.874Z,-6.70
2019-01-23T01:41:48.760Z,-6.70
2019-01-23T01:44:18.417Z,-6.70
2019-01-23T01:46:48.125Z,-6.70
2019-01-23T01:49:17.777Z,-6.70
2019-01-23T01:51:47.418Z,-6.70
2019-01-23T01:54:17.159Z,-6.70
2019-01-23T01:56:46.780Z,-6.70
2019-01-23T01:59:16.461Z,-6.70
2019-01-23T02:01:46.086Z,-6.60
2019-01-23T02:04:15.825Z,-6.60
2019-01-23T02:06:45.518Z,-6.60
2019-01-23T02:09:15.255Z,-6.60
2019-01-23T02:11:44.881Z,-6.60
2019-01-23T02:14:14.617Z,-6.60
2019-01-23T02:16:44.495Z,-6.60
2019-01-23T02:19:14.284Z,-6.60
2019-01-23T02:21:43.999Z,-6.60
2019-01-23T02:24:13.623Z,-6.60
2019-01-23T02:26:43.279Z,-6.60
2019-01-23T02:29:12.892Z,-6.50
2019-01-23T02:31:42.596Z,-6.50
2019-01-23T02:34:12.241Z,-6.50
2019-01-23T02:36:41.945Z,-6.50
2019-01-23T02:39:11.659Z,-6.40
2019-01-23T02:41:41.288Z,-6.40
2019-01-23T02:44:11.102Z,-6.40
2019-01-23T02:46:40.718Z,-6.40
2019-01-23T02:49:10.403Z,-6.40
2019-01-23T02:51:40.090Z,-6.30
2019-01-23T02:54:09.700Z,-6.30
2019-01-23T02:56:39.411Z,-6.30
2019-01-23T02:59:09.055Z,-6.30
2019-01-23T03:01:38.744Z,-6.30
2019-01-23T03:04:08.430Z,-6.20
2019-01-23T03:06:38.104Z,-6.30
2019-01-23T03:09:08.971Z,-6.30
2019-01-23T03:11:38.570Z,-6.30
2019-01-23T03:14:08.255Z,-6.20
2019-01-23T03:16:37.933Z,-6.30
2019-01-23T03:19:07.691Z,-6.30
2019-01-23T03:21:37.323Z,-6.20
2019-01-23T03:24:07.111Z,-6.20
2019-01-23T03:26:36.757Z,-6.20
2019-01-23T03:29:06.483Z,-6.20
2019-01-23T03:31:36.116Z,-6.20
2019-01-23T03:34:06.040Z,-6.20
2019-01-23T03:36:35.722Z,-6.10
2019-01-23T03:39:07.671Z,-6.10
2019-01-23T03:41:37.350Z,-6.10
2019-01-23T03:44:06.985Z,-6.10
2019-01-23T03:46:36.675Z,-6.00
2019-01-23T03:49:06.325Z,-6.00
2019-01-23T03:51:36.010Z,-6.00
2019-01-23T03:54:05.695Z,-6.00
2019-01-23T03:56:35.387Z,-6.00
2019-01-23T03:59:05.039Z,-5.90
2019-01-23T04:01:34.681Z,-6.00
2019-01-23T04:04:04.483Z,-6.00
2019-01-23T04:06:34.123Z,-6.00
2019-01-23T04:09:05.317Z,-6.00
2019-01-23T04:11:34.997Z,-5.90
2019-01-23T04:14:05.014Z,-5.90
2019-01-23T04:16:34.720Z,-5.90
2019-01-23T04:19:04.420Z,-5.90
2019-01-23T04:21:34.068Z,-6.00
2019-01-23T04:24:03.728Z,-6.00
2019-01-23T04:26:33.443Z,-6.00
2019-01-23T04:29:03.093Z,-6.10
2019-01-23T04:31:32.837Z,-6.10
2019-01-23T04:34:02.480Z,-6.10
2019-01-23T04:36:32.186Z,-6.20
2019-01-23T04:39:01.823Z,-6.20
2019-01-23T04:41:31.507Z,-6.20
2019-01-23T04:44:01.232Z,-6.30
2019-01-23T04:46:31.263Z,-6.30
2019-01-23T04:49:01.135Z,-6.30
2019-01-23T04:51:49.946Z,-6.30
2019-01-23T04:54:20.174Z,-6.40
2019-01-23T04:56:49.910Z,-6.40
2019-01-23T04:59:19.798Z,-6.40
2019-01-23T05:01:49.493Z,-6.40
2019-01-23T05:04:19.263Z,-6.40
2019-01-23T05:06:48.978Z,-6.40
2019-01-23T05:09:18.682Z,-6.40
2019-01-23T05:11:48.407Z,-6.40
2019-01-23T05:14:18.108Z,-6.30
2019-01-23T05:16:47.938Z,-6.30
2019-01-23T05:19:17.659Z,-6.30
2019-01-23T05:21:47.293Z,-6.30
2019-01-23T05:24:17.000Z,-6.20
2019-01-23T05:26:46.652Z,-6.20
2019-01-23T05:29:16.363Z,-6.20
2019-01-23T05:31:46.077Z,-6.30
2019-01-23T05:34:15.708Z,-6.30
2019-01-23T05:36:45.381Z,-6.30
2019-01-23T05:39:15.484Z,-6.30
2019-01-23T05:41:45.128Z,-6.30
2019-01-23T05:44:14.835Z,-6.30
2019-01-23T05:46:44.482Z,-6.30
2019-01-23T05:49:14.166Z,-6.30
2019-01-23T05:51:43.861Z,-6.30
2019-01-23T05:54:13.517Z,-6.40
2019-01-23T05:56:43.218Z,-6.40
2019-01-23T05:59:12.903Z,-6.40
2019-01-23T06:01:42.612Z,-6.40
2019-01-23T06:04:12.306Z,-6.40
2019-01-23T06:06:42.374Z,-6.40
2019-01-23T06:09:12.441Z,-6.40
2019-01-23T06:11:42.147Z,-6.40
2019-01-23T06:14:11.807Z,-6.40
2019-01-23T06:16:41.407Z,-6.40
2019-01-23T06:19:11.116Z,-6.40
2019-01-23T06:21:40.759Z,-6.40
2019-01-23T06:24:10.459Z,-6.40
2019-01-23T06:26:40.146Z,-6.40
2019-01-23T06:29:09.968Z,-6.40
2019-01-23T06:31:39.612Z,-6.50
2019-01-23T06:34:09.280Z,-6.50
2019-01-23T06:36:38.979Z,-6.50
2019-01-23T06:39:09.718Z,-6.40
2019-01-23T06:41:40.227Z,-6.50
2019-01-23T06:44:10.293Z,-6.50
2019-01-23T06:46:41.038Z,-6.40
2019-01-23T06:49:11.216Z,-6.50
2019-01-23T06:51:40.923Z,-6.50
2019-01-23T06:54:10.804Z,-6.40
2019-01-23T06:56:42.284Z,-6.40
2019-01-23T06:59:12.026Z,-6.40
2019-01-23T07:01:41.727Z,-6.40
2019-01-23T07:04:11.391Z,-6.40
2019-01-23T07:06:41.095Z,-6.50
2019-01-23T07:09:10.919Z,-6.40
2019-01-23T07:11:40.678Z,-6.40
2019-01-23T07:14:10.373Z,-6.40
2019-01-23T07:16:40.045Z,-6.40
2019-01-23T07:19:09.761Z,-6.40
2019-01-23T07:21:39.605Z,-6.40
2019-01-23T07:24:09.351Z,-6.30
2019-01-23T07:26:39.214Z,-6.30
2019-01-23T07:29:09.356Z,-6.30
2019-01-23T07:31:39.053Z,-6.30
2019-01-23T07:34:08.965Z,-6.30
2019-01-23T07:36:38.951Z,-6.30
2019-01-23T07:39:10.656Z,-6.30
2019-01-23T07:41:40.404Z,-6.30
2019-01-23T07:44:10.115Z,-6.30
2019-01-23T07:46:39.919Z,-6.20
2019-01-23T07:49:09.563Z,-6.20
2019-01-23T07:51:39.264Z,-6.10
2019-01-23T07:54:08.937Z,-6.10
2019-01-23T07:56:38.635Z,-6.10
2019-01-23T07:59:08.309Z,-6.00
2019-01-23T08:01:38.024Z,-6.00
2019-01-23T08:04:07.694Z,-6.00
2019-01-23T08:06:37.458Z,-6.00
2019-01-23T08:09:09.218Z,-5.90
2019-01-23T08:11:39.002Z,-5.90
2019-01-23T08:14:08.724Z,-5.80
2019-01-23T08:16:38.345Z,-5.80
2019-01-23T08:19:08.336Z,-5.80
2019-01-23T08:21:38.059Z,-5.80
2019-01-23T08:24:07.755Z,-5.80
2019-01-23T08:26:37.472Z,-5.80
2019-01-23T08:29:07.312Z,-5.70
2019-01-23T08:31:36.978Z,-5.70
2019-01-23T08:34:06.676Z,-5.70
2019-01-23T08:36:36.364Z,-5.60
2019-01-23T08:39:11.060Z,-5.60
2019-01-23T08:41:40.737Z,-5.60
2019-01-23T08:44:10.469Z,-5.60
2019-01-23T08:46:40.082Z,-5.60
2019-01-23T08:49:09.760Z,-5.50
2019-01-23T08:51:39.471Z,-5.50
2019-01-23T08:54:09.185Z,-5.40
2019-01-23T08:56:38.815Z,-5.40
2019-01-23T08:59:08.731Z,-5.40
2019-01-23T09:01:38.483Z,-5.40
2019-01-23T09:04:08.258Z,-5.30
2019-01-23T09:06:37.987Z,-5.30
2019-01-23T09:09:08.834Z,-5.20
2019-01-23T09:11:38.526Z,-5.10
2019-01-23T09:14:08.277Z,-5.10
2019-01-23T09:16:37.941Z,-5.00
2019-01-23T09:19:07.615Z,-5.10
2019-01-23T09:21:37.300Z,-5.10
2019-01-23T09:24:07.008Z,-5.10
2019-01-23T09:26:36.638Z,-5.10
2019-01-23T09:29:06.339Z,-5.00
2019-01-23T09:32:05.501Z,-4.90
2019-01-23T09:35:09.936Z,-4.80
2019-01-23T09:38:15.948Z,-4.70
2019-01-23T09:41:17.214Z,-4.60
2019-01-23T09:44:18.081Z,-4.60
2019-01-23T09:47:26.242Z,-4.60
2019-01-23T09:50:23.159Z,-4.60
2019-01-23T09:53:10.207Z,-4.60
2019-01-23T09:55:40.023Z,-4.70
2019-01-23T09:58:11.264Z,-4.60
2019-01-23T10:00:40.983Z,-4.60
2019-01-23T10:03:10.660Z,-4.50
2019-01-23T10:05:40.345Z,-4.50
2019-01-23T10:08:09.970Z,-4.40
2019-01-23T10:10:39.642Z,-4.40
2019-01-23T10:13:09.340Z,-4.30
2019-01-23T10:15:43.001Z,-4.30
2019-01-23T10:18:12.706Z,-4.30
2019-01-23T10:20:42.659Z,-4.20
2019-01-23T10:23:12.387Z,-4.10
2019-01-23T10:25:42.221Z,-4.10
2019-01-23T10:28:11.899Z,-4.10
2019-01-23T10:30:41.605Z,-4.20
2019-01-23T10:33:11.267Z,-4.10
2019-01-23T10:35:40.958Z,-4.00
2019-01-23T10:38:10.632Z,-3.90
2019-01-23T10:40:41.092Z,-3.70
2019-01-23T10:43:10.851Z,-3.70
2019-01-23T10:45:40.440Z,-3.60
2019-01-23T10:48:10.032Z,-3.50
2019-01-23T10:50:39.702Z,-3.40
2019-01-23T10:53:09.428Z,-3.40
2019-01-23T10:55:39.110Z,-3.40
2019-01-23T10:58:08.813Z,-3.40
2019-01-23T11:00:39.285Z,-3.50
2019-01-23T11:03:10.169Z,-3.50
2019-01-23T11:05:40.061Z,-3.40
2019-01-23T11:08:09.746Z,-3.50
2019-01-23T11:10:39.407Z,-3.40
2019-01-23T11:13:10.777Z,-3.50
2019-01-23T11:15:40.433Z,-3.50
2019-01-23T11:18:10.141Z,-3.50
2019-01-23T11:20:39.786Z,-3.50
2019-01-23T11:23:10.343Z,-3.50
2019-01-23T11:25:40.033Z,-3.50
2019-01-23T11:28:09.719Z,-3.50
2019-01-23T11:30:39.447Z,-3.30
2019-01-23T11:33:09.149Z,-3.20
2019-01-23T11:35:38.782Z,-3.10
2019-01-23T11:38:08.439Z,-3.00
2019-01-23T11:40:38.170Z,-2.90
2019-01-23T11:43:07.793Z,-2.90
2019-01-23T11:45:37.455Z,-2.90
2019-01-23T11:48:07.221Z,-2.90
2019-01-23T11:50:36.975Z,-2.90
2019-01-23T11:53:07.387Z,-2.80
2019-01-23T11:55:37.088Z,-2.80
2019-01-23T11:58:06.714Z,-2.80
2019-01-23T12:00:37.307Z,-2.70
2019-01-23T12:03:07.098Z,-2.60
2019-01-23T12:05:36.712Z,-2.50
2019-01-23T12:08:06.664Z,-2.50
2019-01-23T12:10:36.386Z,-2.70
2019-01-23T12:13:06.096Z,-2.80
2019-01-23T12:15:40.776Z,-3.00
2019-01-23T12:18:07.184Z,-3.10
2019-01-23T12:20:36.871Z,-3.20
2019-01-23T12:23:06.701Z,-3.20
2019-01-23T12:25:36.331Z,-3.20
2019-01-23T12:28:05.991Z,-3.30
2019-01-23T12:30:36.675Z,-3.30
2019-01-23T12:33:06.357Z,-3.40
2019-01-23T12:35:35.997Z,-3.50
2019-01-23T12:38:07.448Z,-3.60
2019-01-23T12:40:37.051Z,-3.60
2019-01-23T12:43:06.711Z,-3.60
2019-01-23T12:45:36.476Z,-3.40
2019-01-23T12:48:06.216Z,-3.40
2019-01-23T12:50:35.902Z,-3.30
2019-01-23T12:53:05.887Z,-3.20
2019-01-23T12:55:35.510Z,-3.20
2019-01-23T12:58:05.422Z,-3.20
2019-01-23T13:00:35.106Z,-3.30
2019-01-23T13:03:05.183Z,-3.40
2019-01-23T13:05:35.042Z,-3.50
2019-01-23T13:08:05.774Z,-3.60
2019-01-23T13:10:35.594Z,-3.80
2019-01-23T13:13:05.632Z,-3.90
2019-01-23T13:15:35.383Z,-3.90
2019-01-23T13:18:05.232Z,-4.00
2019-01-23T13:20:35.207Z,-4.00
2019-01-23T13:23:05.330Z,-4.00
2019-01-23T13:25:35.096Z,-3.90
2019-01-23T13:28:04.910Z,-3.80
2019-01-23T13:30:34.971Z,-3.80
2019-01-23T13:33:05.050Z,-3.70
2019-01-23T13:35:37.295Z,-3.70
2019-01-23T13:38:15.797Z,-3.70
2019-01-23T13:40:45.434Z,-3.70
2019-01-23T13:43:15.187Z,-3.70
2019-01-23T13:45:45.034Z,-3.70
2019-01-23T13:48:14.684Z,-3.60
2019-01-23T13:50:44.379Z,-3.60
2019-01-23T13:53:14.063Z,-3.60
2019-01-23T13:55:44.226Z,-3.70
2019-01-23T13:58:14.019Z,-3.80
2019-01-23T14:00:44.064Z,-4.00
2019-01-23T14:03:13.853Z,-4.10
2019-01-23T14:05:43.577Z,-4.10
2019-01-23T14:08:13.327Z,-4.30
2019-01-23T14:10:42.985Z,-4.30
2019-01-23T14:13:12.665Z,-4.40
2019-01-23T14:15:42.475Z,-4.60
2019-01-23T14:18:12.275Z,-4.70
2019-01-23T14:20:42.075Z,-4.80
2019-01-23T14:23:11.779Z,-4.90
2019-01-23T14:25:41.487Z,-5.10
2019-01-23T14:28:11.237Z,-5.10
2019-01-23T14:30:45.868Z,-5.30
2019-01-23T14:33:15.620Z,-5.30
2019-01-23T14:35:48.479Z,-5.50
2019-01-23T14:38:21.083Z,-5.50
2019-01-23T14:40:54.617Z,-5.60
2019-01-23T14:43:38.795Z,-5.70
2019-01-23T14:46:09.870Z,-5.70
2019-01-23T14:48:41.740Z,-5.70
2019-01-23T14:51:17.675Z,-5.80
2019-01-23T14:53:53.359Z,-5.80
2019-01-23T14:56:27.952Z,-5.80
2019-01-23T14:59:00.078Z,-5.80
2019-01-23T15:01:34.844Z,-5.80
2019-01-23T15:04:07.092Z,-5.80
2019-01-23T15:06:42.673Z,-5.80
2019-01-23T15:09:19.157Z,-5.90
2019-01-23T15:11:51.200Z,-5.90
2019-01-23T15:14:28.513Z,-5.90
2019-01-23T15:17:19.049Z,-5.90
2019-01-23T15:20:04.302Z,-5.90
2019-01-23T15:23:13.860Z,-6.00
2019-01-23T15:26:10.462Z,-6.00
2019-01-23T15:29:22.649Z,-6.00
2019-01-23T15:43:15.468Z,-6.10
2019-01-23T15:46:23.171Z,-6.10
2019-01-23T15:49:48.926Z,-6.10
2019-01-23T15:52:45.007Z,-6.10
2019-01-23T15:55:40.161Z,-6.00
2019-01-23T15:58:43.799Z,-6.00
2019-01-23T16:01:26.567Z,-5.90
2019-01-23T16:04:16.078Z,-5.90
2019-01-23T16:07:15.936Z,-5.90
2019-01-23T16:10:10.627Z,-5.90
2019-01-23T16:13:03.787Z,-5.90
2019-01-23T16:15:49.636Z,-5.80
2019-01-23T16:18:37.159Z,-5.90
2019-01-23T16:21:16.567Z,-5.80
2019-01-23T16:23:56.941Z,-5.80
2019-01-23T16:26:33.733Z,-5.80
2019-01-23T16:29:16.817Z,-5.80
2019-01-23T16:31:51.964Z,-5.80
2019-01-23T16:34:51.184Z,-5.70
2019-01-23T16:37:26.040Z,-5.70
2019-01-23T16:40:11.819Z,-5.70
2019-01-23T16:42:49.677Z,-5.60
2019-01-23T16:45:48.957Z,-5.60
2019-01-23T16:48:23.859Z,-5.60
2019-01-23T16:50:59.307Z,-5.60
2019-01-23T16:53:29.005Z,-5.60
2019-01-23T16:56:00.874Z,-5.70
2019-01-23T16:58:31.031Z,-5.60
2019-01-23T17:01:01.574Z,-5.60
2019-01-23T17:03:32.623Z,-5.60
2019-01-23T17:06:04.682Z,-5.60
2019-01-23T17:08:34.852Z,-5.60
2019-01-23T17:11:05.603Z,-5.60
2019-01-23T17:13:37.427Z,-5.60
2019-01-23T17:16:07.991Z,-5.50
2019-01-23T17:18:38.263Z,-5.50
2019-01-23T17:21:11.567Z,-5.50
2019-01-23T17:23:42.399Z,-5.50
2019-01-23T17:26:18.590Z,-5.50
2019-01-23T17:28:49.393Z,-5.50
2019-01-23T17:31:19.877Z,-5.40
2019-01-23T17:33:51.655Z,-5.40
2019-01-23T17:36:22.954Z,-5.30
2019-01-23T17:38:54.545Z,-5.40
2019-01-23T17:41:25.967Z,-5.40
2019-01-23T17:43:57.338Z,-5.40
2019-01-23T17:46:27.862Z,-5.40
2019-01-23T17:48:59.045Z,-5.50
2019-01-23T17:51:30.586Z,-5.50
2019-01-23T17:54:01.450Z,-5.50
2019-01-23T17:56:31.213Z,-5.50
2019-01-23T17:59:01.945Z,-5.50
2019-01-23T18:01:34.314Z,-5.40
2019-01-23T18:04:04.409Z,-5.40
2019-01-23T18:06:37.341Z,-5.40
2019-01-23T18:09:10.673Z,-5.40
2019-01-23T18:11:41.673Z,-5.40
2019-01-23T18:14:12.231Z,-5.40
2019-01-23T18:16:44.033Z,-5.50
2019-01-23T18:19:14.016Z,-5.40
2019-01-23T18:21:43.698Z,-5.50
2019-01-23T18:24:13.361Z,-5.50
2019-01-23T18:26:43.059Z,-5.50
2019-01-23T18:29:12.760Z,-5.50
2019-01-23T18:31:59.818Z,-5.50
2019-01-23T18:34:59.116Z,-5.50
2019-01-23T18:38:08.606Z,-5.40
2019-01-23T18:41:15.478Z,-5.40
2019-01-23T18:44:19.512Z,-5.50
2019-01-23T18:47:07.022Z,-5.50
2019-01-23T18:50:16.568Z,-5.50
2019-01-23T18:52:48.111Z,-5.40
2019-01-23T18:55:18.876Z,-5.40
2019-01-23T18:57:48.653Z,-5.40
2019-01-23T19:00:21.134Z,-5.40
2019-01-23T19:02:50.955Z,-5.40
2019-01-23T19:05:21.139Z,-5.40
2019-01-23T19:07:50.817Z,-5.40
2019-01-23T19:10:21.760Z,-5.40
2019-01-23T19:12:51.487Z,-5.40
2019-01-23T19:15:21.541Z,-5.40
2019-01-23T19:17:51.297Z,-5.50
2019-01-23T19:20:23.810Z,-5.50
2019-01-23T19:22:53.542Z,-5.50
2019-01-23T19:25:23.189Z,-5.40
2019-01-23T19:27:56.831Z,-5.40
2019-01-23T19:30:26.632Z,-5.40
2019-01-23T19:32:56.544Z,-5.40
2019-01-23T19:35:27.716Z,-5.40
2019-01-23T19:37:59.406Z,-5.40
2019-01-23T19:40:29.049Z,-5.40
2019-01-23T19:42:59.169Z,-5.40
2019-01-23T19:45:29.387Z,-5.40
2019-01-23T19:47:59.115Z,-5.30
2019-01-23T19:50:28.863Z,-5.30
2019-01-23T19:52:59.756Z,-5.20
2019-01-23T19:55:29.562Z,-5.20
2019-01-23T19:57:59.282Z,-5.10
2019-01-23T20:00:28.982Z,-5.20
2019-01-23T20:02:59.064Z,-5.10
2019-01-23T20:05:30.748Z,-5.10
2019-01-23T20:08:00.564Z,-5.10
2019-01-23T20:10:31.424Z,-5.10
2019-01-23T20:13:02.269Z,-5.10
2019-01-23T20:15:35.196Z,-5.10
2019-01-23T20:18:08.228Z,-5.10
2019-01-23T20:20:37.998Z,-5.10
2019-01-23T20:23:07.856Z,-5.10
2019-01-23T20:25:38.752Z,-5.00
2019-01-23T20:28:13.500Z,-5.00
2019-01-23T20:30:47.550Z,-5.00
2019-01-23T20:33:18.285Z,-5.00
2019-01-23T20:35:48.084Z,-5.00
2019-01-23T20:38:18.188Z,-4.90
2019-01-23T20:40:47.847Z,-4.90
2019-01-23T20:43:17.637Z,-4.90
2019-01-23T20:45:51.557Z,-4.90
2019-01-23T20:48:21.263Z,-4.90
2019-01-23T20:50:51.042Z,-4.80
2019-01-23T20:53:20.746Z,-4.80
2019-01-23T20:55:51.066Z,-4.80
2019-01-23T20:58:20.729Z,-4.80
2019-01-23T21:00:50.445Z,-4.70
2019-01-23T21:03:20.146Z,-4.80
2019-01-23T21:05:49.824Z,-4.80
2019-01-23T21:08:19.502Z,-4.70
2019-01-23T21:10:49.263Z,-4.70
2019-01-23T21:13:18.968Z,-4.70
2019-01-23T21:15:48.595Z,-4.70
2019-01-23T21:18:18.279Z,-4.70
2019-01-23T21:20:48.530Z,-4.70
2019-01-23T21:23:18.228Z,-4.70
2019-01-23T21:25:47.923Z,-4.70
2019-01-23T21:28:17.647Z,-4.60
2019-01-23T21:30:47.359Z,-4.60
2019-01-23T21:33:17.067Z,-4.60
2019-01-23T21:35:46.711Z,-4.60
2019-01-23T21:38:16.395Z,-4.60
2019-01-23T21:40:46.093Z,-4.60
2019-01-23T21:43:15.859Z,-4.50
2019-01-23T21:45:45.777Z,-4.50
2019-01-23T21:48:17.706Z,-4.50
2019-01-23T21:50:47.473Z,-4.50
2019-01-23T21:53:17.118Z,-4.50
2019-01-23T21:55:47.666Z,-4.50
2019-01-23T21:58:17.377Z,-4.50
2019-01-23T22:00:49.880Z,-4.50
2019-01-23T22:03:19.605Z,-4.50
2019-01-23T22:05:49.395Z,-4.50
2019-01-23T22:08:19.211Z,-4.50
2019-01-23T22:10:50.273Z,-4.50
2019-01-23T22:13:19.991Z,-4.50
2019-01-23T22:15:49.616Z,-4.40
2019-01-23T22:18:19.315Z,-4.40
2019-01-23T22:20:48.972Z,-4.40
2019-01-23T22:23:18.657Z,-4.40
2019-01-23T22:25:48.371Z,-4.40
2019-01-23T22:28:18.025Z,-4.40
2019-01-23T22:30:47.768Z,-4.30
2019-01-23T22:33:17.448Z,-4.30
2019-01-23T22:35:47.262Z,-4.30
2019-01-23T22:38:16.905Z,-4.30
2019-01-23T22:40:46.534Z,-4.20
2019-01-23T22:43:16.220Z,-4.20
2019-01-23T22:45:45.907Z,-4.20
2019-01-23T22:48:15.526Z,-4.20
2019-01-23T22:50:45.227Z,-4.20
2019-01-23T22:53:14.854Z,-4.20
2019-01-23T22:55:44.532Z,-4.10
2019-01-23T22:58:14.138Z,-4.10
2019-01-23T23:01:14.115Z,-4.10
2019-01-23T23:03:43.780Z,-4.10
2019-01-23T23:06:13.514Z,-4.00
2019-01-23T23:08:43.149Z,-4.00
2019-01-23T23:11:12.855Z,-4.00
2019-01-23T23:13:42.589Z,-4.00
2019-01-23T23:16:12.184Z,-3.90
2019-01-23T23:18:41.847Z,-3.90
2019-01-23T23:21:11.538Z,-3.90
2019-01-23T23:23:41.168Z,-3.90
2019-01-23T23:26:10.855Z,-3.80
2019-01-23T23:28:40.530Z,-3.90
2019-01-23T23:31:10.207Z,-3.80
2019-01-23T23:33:39.924Z,-3.80
2019-01-23T23:36:09.607Z,-3.80
2019-01-23T23:38:39.221Z,-3.80
2019-01-23T23:41:08.870Z,-3.80
2019-01-23T23:43:38.624Z,-3.80
2019-01-23T23:46:08.405Z,-3.80
2019-01-23T23:48:38.076Z,-3.70
2019-01-23T23:51:07.771Z,-3.70
2019-01-23T23:53:37.465Z,-3.70
2019-01-23T23:56:07.247Z,-3.70
2019-01-23T23:58:36.886Z,-3.70
